createdAt,value
2023-05-11T00:00:33.373Z,22.3
2023-05-11T00:15:33.761Z,22.2
2023-05-11T00:30:33.470Z,22.2
2023-05-11T00:45:33.598Z,22.2
2023-05-11T01:00:33.644Z,22.2
2023-05-11T01:15:32.198Z,22.1
2023-05-11T01:30:31.948Z,22.1
2023-05-11T01:45:32.791Z,22.1
2023-05-11T02:00:32.868Z,22.1
2023-05-11T02:15:31.959Z,22.1
2023-05-11T02:30:32.485Z,22.0
2023-05-11T02:45:32.530Z,22
2023-05-11T03:00:32.392Z,22
2023-05-11T03:15:32.449Z,22
2023-05-11T03:30:33.088Z,22
2023-05-11T03:45:32.893Z,21.9
2023-05-11T04:00:32.835Z,21.9
2023-05-11T04:15:32.748Z,21.9
2023-05-11T04:30:33.306Z,21.9
2023-05-11T04:45:32.570Z,21.9
2023-05-11T05:00:33.930Z,21.9
2023-05-11T05:15:32.679Z,21.9
2023-05-11T05:30:33.872Z,22.0
2023-05-11T05:45:33.287Z,22.1
2023-05-11T06:00:33.609Z,22.1
2023-05-11T06:15:33.086Z,22.2
2023-05-11T06:30:33.803Z,22.3
2023-05-11T06:45:32.610Z,22.3
2023-05-11T07:00:33.418Z,22.4
2023-05-11T07:15:33.474Z,22.4
2023-05-11T07:30:33.141Z,22.5
2023-05-11T07:45:32.274Z,22.5
2023-05-11T08:00:33.345Z,22.5
2023-05-11T08:15:33.171Z,22.6
2023-05-11T08:30:34.835Z,22.6
2023-05-11T08:45:32.106Z,22.7
2023-05-11T09:00:34.187Z,22.7
2023-05-11T09:15:36.808Z,22.8
2023-05-11T09:30:33.591Z,22.8
2023-05-11T09:45:33.930Z,22.8
2023-05-11T10:00:33.714Z,22.8
2023-05-11T10:15:33.487Z,22.9
2023-05-11T10:30:34.827Z,22.9
2023-05-11T10:45:33.666Z,22.9
2023-05-11T11:00:33.406Z,22.9
2023-05-11T11:15:33.633Z,23.0
2023-05-11T11:30:33.230Z,23
2023-05-11T11:45:33.329Z,23
2023-05-11T12:00:33.483Z,23.0
2023-05-11T12:15:33.551Z,23.1
2023-05-11T12:30:33.387Z,23.1
2023-05-11T12:45:33.193Z,23.1
2023-05-11T13:00:33.627Z,23.1
2023-05-11T13:15:32.561Z,23.2
2023-05-11T13:30:35.043Z,23.2
2023-05-11T13:45:32.328Z,23.3
2023-05-11T14:00:33.163Z,23.3
2023-05-11T14:15:33.501Z,23.2
2023-05-11T14:30:34.266Z,23.1
2023-05-11T14:45:33.663Z,23.1
2023-05-11T15:00:33.500Z,23
2023-05-11T15:15:33.257Z,22.9
2023-05-11T15:30:33.426Z,22.9
2023-05-11T15:45:32.291Z,22.8
2023-05-11T16:00:34.186Z,22.8
2023-05-11T16:15:32.565Z,22.8
2023-05-11T16:30:33.887Z,22.7
2023-05-11T16:45:33.268Z,22.7
2023-05-11T17:00:34.366Z,22.6
2023-05-11T17:15:33.024Z,22.6
2023-05-11T17:30:47.106Z,22.6
2023-05-11T17:45:32.755Z,22.5
2023-05-11T18:00:33.460Z,22.5
2023-05-11T18:15:33.137Z,22.5
2023-05-11T18:30:33.856Z,22.5
2023-05-11T18:45:32.691Z,22.4
2023-05-11T19:00:33.521Z,22.4
2023-05-11T19:15:33.586Z,22.3
2023-05-11T19:30:33.318Z,22.3
2023-05-11T19:45:33.702Z,22.3
2023-05-11T20:00:33.315Z,22.3
2023-05-11T20:15:33.300Z,22.2
2023-05-11T20:30:32.928Z,22.2
2023-05-11T20:45:32.830Z,22.2
2023-05-11T21:00:33.265Z,22.1
2023-05-11T21:15:32.468Z,22.1
2023-05-11T21:30:33.173Z,22.1
2023-05-11T21:45:33.704Z,22.1
2023-05-11T22:00:33.364Z,22.1
2023-05-11T22:15:32.335Z,22.1
2023-05-11T22:30:32.974Z,22.0
2023-05-11T22:45:32.856Z,22
2023-05-11T23:00:33.410Z,22
2023-05-11T23:15:32.448Z,22
2023-05-11T23:30:33.891Z,21.9
2023-05-11T23:45:32.473Z,21.9
